Sarah Reed — WDC3151 — position and weather

sailwx.info

Track history (hours):
 
Tides and Currents Weather Stations Pressure Air Temp Water Temp Dewpoint Dewpoint Depression Visibility Wind Speed Wind Dir Waves Ship Positions

Sarah Reed

Owner: THE DUTRA GROUP, SAN RAFAEL, CA. More information available from US FCC via Universal Licensing System.

Last reported at 2018-Feb-20 21:02 UTC. Time now 2018-Feb-24 00:25 UTC.
Position N 37°54' W 122°22'.

Length 19 m; draft 3.3 m.

Type: Towing. MMSI: 367003250.

Date/timePositionNaut miles runAvg speedWind from/ knotsBaromVisibWave heightAir tempDewpointWater temp
2018-Feb-20 21:02N 37°54' W 122°22'0 0.0
2018-Feb-20 21:00N 37°54' W 122°22'2 3.6
2018-Feb-20 20:30N 37°53' W 122°24'4 7.1
2018-Feb-20 20:00N 37°50' W 122°21'0 0.9
2018-Feb-20 19:30N 37°50' W 122°21'2 3.8
2018-Feb-20 19:00N 37°48' W 122°21'2 3.5
2018-Feb-20 18:31N 37°46' W 122°21'0 0.2
2018-Feb-20 18:00N 37°46' W 122°22'0 0.3
2018-Feb-20 17:31N 37°46' W 122°22'0 0.1
2018-Feb-20 17:00N 37°46' W 122°22'2 3.2
2018-Feb-20 16:30N 37°46' W 122°20'2 3.2
2018-Feb-20 16:00N 37°46' W 122°21'0 0.1
2018-Feb-20 15:30N 37°46' W 122°22'0 0.1
2018-Feb-20 15:00N 37°46' W 122°21'0 0.0
2018-Feb-20 14:30N 37°46' W 122°21'2 3.1
2018-Feb-20 14:00N 37°46' W 122°20'1 2.2
2018-Feb-20 13:30N 37°46' W 122°21'0 1.0
2018-Feb-20 13:00N 37°46' W 122°22'0 0.1
2018-Feb-20 12:30N 37°46' W 122°22'0 0.0
2018-Feb-20 12:00N 37°46' W 122°22'0 1.0
2018-Feb-20 11:30N 37°46' W 122°21'1 1.6
2018-Feb-20 11:00N 37°46' W 122°20'1 2.0
2018-Feb-20 10:31N 37°46' W 122°21'0 0.0
2018-Feb-20 10:00N 37°46' W 122°21'0 0.0
2018-Feb-20 09:30N 37°46' W 122°21'0 0.0
2018-Feb-20 09:01N 37°46' W 122°21'1 1.1
2018-Feb-20 08:30N 37°46' W 122°21'1 1.0
2018-Feb-20 08:00N 37°46' W 122°20'1 1.7
2018-Feb-20 07:30N 37°46' W 122°19'0 0.0
2018-Feb-20 07:00N 37°46' W 122°19'0 0.1
2018-Feb-20 06:31N 37°46' W 122°19'0 0.0
2018-Feb-20 06:00N 37°46' W 122°19'0 0.0
2018-Feb-20 05:30N 37°46' W 122°19'0 0.0
2018-Feb-20 05:00N 37°46' W 122°19'0 0.1
2018-Feb-20 04:30N 37°46' W 122°19'0 0.1
2018-Feb-20 04:00N 37°46' W 122°19'0 0.0
2018-Feb-20 03:30N 37°46' W 122°19'0 0.2
2018-Feb-20 03:00N 37°46' W 122°19'0 0.1
2018-Feb-20 02:30N 37°46' W 122°19'0 0.4
2018-Feb-20 02:00N 37°46' W 122°20'2 3.8
2018-Feb-20 01:30N 37°48' W 122°21'2 3.8
2018-Feb-20 01:01N 37°50' W 122°21'0 0.5
2018-Feb-20 00:30N 37°50' W 122°21'0 0.8
2018-Feb-20 00:00N 37°50' W 122°21'3 6.4
2018-Feb-19 23:30N 37°47' W 122°20'0 0.3
2018-Feb-19 23:01N 37°47' W 122°20'2 4.6
2018-Feb-19 22:31N 37°49' W 122°21'1 2.2
2018-Feb-19 22:00N 37°50' W 122°21'2 4.4
2018-Feb-19 21:31N 37°51' W 122°23'3 5.7
2018-Feb-19 21:00N 37°54' W 122°23'1 1.4
2018-Feb-19 20:30N 37°54' W 122°22'  
2018-Feb-16 20:38N 37°54' W 122°22'0 0.6
2018-Feb-16 20:30N 37°54' W 122°22'3 5.9
2018-Feb-16 20:00N 37°56' W 122°25'3 6.4
2018-Feb-16 19:30N 37°59' W 122°25'4 6.9
2018-Feb-16 18:59N 38°01' W 122°22'3 7.2
2018-Feb-16 18:30N 38°03' W 122°18'3 6.4
2018-Feb-16 18:00N 38°05' W 122°15'1 1.6
2018-Feb-16 17:25N 38°06' W 122°16'0 0.2
2018-Feb-16 17:00N 38°06' W 122°16'2 3.5
2018-Feb-16 16:30N 38°04' W 122°16'2 4.4
2018-Feb-16 16:00N 38°03' W 122°18'2 4.2
2018-Feb-16 15:30N 38°02' W 122°21'3 5.4
2018-Feb-16 15:00N 38°01' W 122°24'3 5.1
2018-Feb-16 14:30N 37°59' W 122°26'0 0.6
2018-Feb-16 14:00N 37°59' W 122°26'0 0.0
2018-Feb-16 13:30N 37°59' W 122°26'0 0.0
2018-Feb-16 13:00N 37°59' W 122°26'0 0.0
2018-Feb-16 12:30N 37°59' W 122°26'0 0.0
2018-Feb-16 12:00N 37°59' W 122°26'0 0.0
2018-Feb-16 11:30N 37°59' W 122°26'0 0.0
2018-Feb-16 11:00N 37°59' W 122°26'0 0.0
2018-Feb-16 10:30N 37°59' W 122°26'0 0.0
2018-Feb-16 10:00N 37°59' W 122°26'0 0.1
2018-Feb-16 09:30N 37°59' W 122°26'0 0.0
2018-Feb-16 09:00N 37°59' W 122°26'0 0.0
2018-Feb-16 08:29N 37°59' W 122°26'0 0.0
2018-Feb-16 08:00N 37°59' W 122°26'0 0.0
2018-Feb-16 07:30N 37°59' W 122°26'0 0.0
2018-Feb-16 07:00N 37°59' W 122°26'0 0.0
2018-Feb-16 06:30N 37°59' W 122°26'0 0.0
2018-Feb-16 06:00N 37°59' W 122°26'0 0.0
2018-Feb-16 05:30N 37°59' W 122°26'0 0.0
2018-Feb-16 05:00N 37°59' W 122°26'0 0.0
2018-Feb-16 04:30N 37°59' W 122°26'0 0.0
2018-Feb-16 04:00N 37°59' W 122°26'0 0.1
2018-Feb-16 03:30N 37°59' W 122°26'0 0.1
2018-Feb-16 02:59N 37°59' W 122°26'1 1.3
2018-Feb-16 02:30N 37°58' W 122°27'2 3.5
2018-Feb-16 02:00N 37°57' W 122°27'2 3.1
2018-Feb-16 01:30N 37°55' W 122°27'2 3.7
2018-Feb-16 01:00N 37°53' W 122°26'2 4.5
2018-Feb-16 00:30N 37°51' W 122°24'4 7.3
2018-Feb-16 00:00N 37°48' W 122°22'2 5.0
2018-Feb-15 23:30N 37°49' W 122°19'0 0.0
2018-Feb-15 23:00N 37°49' W 122°19'0 0.0
2018-Feb-15 22:30N 37°49' W 122°19'0 0.0
2018-Feb-15 22:00N 37°49' W 122°19'0 0.0
2018-Feb-15 21:30N 37°49' W 122°19'0 0.0
2018-Feb-15 21:00N 37°49' W 122°19'0 0.0
2018-Feb-15 20:30N 37°49' W 122°19'0 0.0
2018-Feb-15 20:00N 37°49' W 122°19'0 0.0
2018-Feb-15 19:30N 37°49' W 122°19'0 0.0
2018-Feb-15 19:00N 37°49' W 122°19'0 0.0
2018-Feb-15 18:30N 37°49' W 122°19'0 0.0
2018-Feb-15 18:00N 37°49' W 122°19'0 0.0
2018-Feb-15 17:30N 37°49' W 122°19'0 0.4
2018-Feb-15 17:00N 37°49' W 122°19'2 3.1
2018-Feb-15 16:30N 37°48' W 122°21'2 4.8
2018-Feb-15 16:00N 37°50' W 122°23'3 5.6
2018-Feb-15 15:30N 37°53' W 122°24'2 3.5
2018-Feb-15 15:00N 37°54' W 122°23'1 1.1
2018-Feb-15 14:30N 37°54' W 122°22'  
Track history (hours):
 
Tides and Currents Weather Stations Pressure Air Temp Water Temp Dewpoint Dewpoint Depression Visibility Wind Speed Wind Dir Waves Ship Positions

Sarah Reed

Owner: THE DUTRA GROUP, SAN RAFAEL, CA. More information available from US FCC via Universal Licensing System.

Last reported at 2018-Feb-20 21:02 UTC. Time now 2018-Feb-24 00:25 UTC.
Position N 37°54' W 122°22'.

Length 19 m; draft 3.3 m.

Type: Towing. MMSI: 367003250.

Date/timePositionNaut miles runAvg speedWind from/ knotsBaromVisibWave heightAir tempDewpointWater temp
2018-Feb-20 21:02N 37°54' W 122°22'0 0.0
2018-Feb-20 21:00N 37°54' W 122°22'2 3.6
2018-Feb-20 20:30N 37°53' W 122°24'4 7.1
2018-Feb-20 20:00N 37°50' W 122°21'0 0.9
2018-Feb-20 19:30N 37°50' W 122°21'2 3.8
2018-Feb-20 19:00N 37°48' W 122°21'2 3.5
2018-Feb-20 18:31N 37°46' W 122°21'0 0.2
2018-Feb-20 18:00N 37°46' W 122°22'0 0.3
2018-Feb-20 17:31N 37°46' W 122°22'0 0.1
2018-Feb-20 17:00N 37°46' W 122°22'2 3.2
2018-Feb-20 16:30N 37°46' W 122°20'2 3.2
2018-Feb-20 16:00N 37°46' W 122°21'0 0.1
2018-Feb-20 15:30N 37°46' W 122°22'0 0.1
2018-Feb-20 15:00N 37°46' W 122°21'0 0.0
2018-Feb-20 14:30N 37°46' W 122°21'2 3.1
2018-Feb-20 14:00N 37°46' W 122°20'1 2.2
2018-Feb-20 13:30N 37°46' W 122°21'0 1.0
2018-Feb-20 13:00N 37°46' W 122°22'0 0.1
2018-Feb-20 12:30N 37°46' W 122°22'0 0.0
2018-Feb-20 12:00N 37°46' W 122°22'0 1.0
2018-Feb-20 11:30N 37°46' W 122°21'1 1.6
2018-Feb-20 11:00N 37°46' W 122°20'1 2.0
2018-Feb-20 10:31N 37°46' W 122°21'0 0.0
2018-Feb-20 10:00N 37°46' W 122°21'0 0.0
2018-Feb-20 09:30N 37°46' W 122°21'0 0.0
2018-Feb-20 09:01N 37°46' W 122°21'1 1.1
2018-Feb-20 08:30N 37°46' W 122°21'1 1.0
2018-Feb-20 08:00N 37°46' W 122°20'1 1.7
2018-Feb-20 07:30N 37°46' W 122°19'0 0.0
2018-Feb-20 07:00N 37°46' W 122°19'0 0.1
2018-Feb-20 06:31N 37°46' W 122°19'0 0.0
2018-Feb-20 06:00N 37°46' W 122°19'0 0.0
2018-Feb-20 05:30N 37°46' W 122°19'0 0.0
2018-Feb-20 05:00N 37°46' W 122°19'0 0.1
2018-Feb-20 04:30N 37°46' W 122°19'0 0.1
2018-Feb-20 04:00N 37°46' W 122°19'0 0.0
2018-Feb-20 03:30N 37°46' W 122°19'0 0.2
2018-Feb-20 03:00N 37°46' W 122°19'0 0.1
2018-Feb-20 02:30N 37°46' W 122°19'0 0.4
2018-Feb-20 02:00N 37°46' W 122°20'2 3.8
2018-Feb-20 01:30N 37°48' W 122°21'2 3.8
2018-Feb-20 01:01N 37°50' W 122°21'0 0.5
2018-Feb-20 00:30N 37°50' W 122°21'0 0.8
2018-Feb-20 00:00N 37°50' W 122°21'3 6.4
2018-Feb-19 23:30N 37°47' W 122°20'0 0.3
2018-Feb-19 23:01N 37°47' W 122°20'2 4.6
2018-Feb-19 22:31N 37°49' W 122°21'1 2.2
2018-Feb-19 22:00N 37°50' W 122°21'2 4.4
2018-Feb-19 21:31N 37°51' W 122°23'3 5.7
2018-Feb-19 21:00N 37°54' W 122°23'1 1.4
2018-Feb-19 20:30N 37°54' W 122°22'  
2018-Feb-16 20:38N 37°54' W 122°22'0 0.6
2018-Feb-16 20:30N 37°54' W 122°22'3 5.9
2018-Feb-16 20:00N 37°56' W 122°25'3 6.4
2018-Feb-16 19:30N 37°59' W 122°25'4 6.9
2018-Feb-16 18:59N 38°01' W 122°22'3 7.2
2018-Feb-16 18:30N 38°03' W 122°18'3 6.4
2018-Feb-16 18:00N 38°05' W 122°15'1 1.6
2018-Feb-16 17:25N 38°06' W 122°16'0 0.2
2018-Feb-16 17:00N 38°06' W 122°16'2 3.5
2018-Feb-16 16:30N 38°04' W 122°16'2 4.4
2018-Feb-16 16:00N 38°03' W 122°18'2 4.2
2018-Feb-16 15:30N 38°02' W 122°21'3 5.4
2018-Feb-16 15:00N 38°01' W 122°24'3 5.1
2018-Feb-16 14:30N 37°59' W 122°26'0 0.6
2018-Feb-16 14:00N 37°59' W 122°26'0 0.0
2018-Feb-16 13:30N 37°59' W 122°26'0 0.0
2018-Feb-16 13:00N 37°59' W 122°26'0 0.0
2018-Feb-16 12:30N 37°59' W 122°26'0 0.0
2018-Feb-16 12:00N 37°59' W 122°26'0 0.0
2018-Feb-16 11:30N 37°59' W 122°26'0 0.0
2018-Feb-16 11:00N 37°59' W 122°26'0 0.0
2018-Feb-16 10:30N 37°59' W 122°26'0 0.0
2018-Feb-16 10:00N 37°59' W 122°26'0 0.1
2018-Feb-16 09:30N 37°59' W 122°26'0 0.0
2018-Feb-16 09:00N 37°59' W 122°26'0 0.0
2018-Feb-16 08:29N 37°59' W 122°26'0 0.0
2018-Feb-16 08:00N 37°59' W 122°26'0 0.0
2018-Feb-16 07:30N 37°59' W 122°26'0 0.0
2018-Feb-16 07:00N 37°59' W 122°26'0 0.0
2018-Feb-16 06:30N 37°59' W 122°26'0 0.0
2018-Feb-16 06:00N 37°59' W 122°26'0 0.0
2018-Feb-16 05:30N 37°59' W 122°26'0 0.0
2018-Feb-16 05:00N 37°59' W 122°26'0 0.0
2018-Feb-16 04:30N 37°59' W 122°26'0 0.0
2018-Feb-16 04:00N 37°59' W 122°26'0 0.1
2018-Feb-16 03:30N 37°59' W 122°26'0 0.1
2018-Feb-16 02:59N 37°59' W 122°26'1 1.3
2018-Feb-16 02:30N 37°58' W 122°27'2 3.5
2018-Feb-16 02:00N 37°57' W 122°27'2 3.1
2018-Feb-16 01:30N 37°55' W 122°27'2 3.7
2018-Feb-16 01:00N 37°53' W 122°26'2 4.5
2018-Feb-16 00:30N 37°51' W 122°24'4 7.3
2018-Feb-16 00:00N 37°48' W 122°22'2 5.0
2018-Feb-15 23:30N 37°49' W 122°19'0 0.0
2018-Feb-15 23:00N 37°49' W 122°19'0 0.0
2018-Feb-15 22:30N 37°49' W 122°19'0 0.0
2018-Feb-15 22:00N 37°49' W 122°19'0 0.0
2018-Feb-15 21:30N 37°49' W 122°19'0 0.0
2018-Feb-15 21:00N 37°49' W 122°19'0 0.0
2018-Feb-15 20:30N 37°49' W 122°19'0 0.0
2018-Feb-15 20:00N 37°49' W 122°19'0 0.0
2018-Feb-15 19:30N 37°49' W 122°19'0 0.0
2018-Feb-15 19:00N 37°49' W 122°19'0 0.0
2018-Feb-15 18:30N 37°49' W 122°19'0 0.0
2018-Feb-15 18:00N 37°49' W 122°19'0 0.0
2018-Feb-15 17:30N 37°49' W 122°19'0 0.4
2018-Feb-15 17:00N 37°49' W 122°19'2 3.1
2018-Feb-15 16:30N 37°48' W 122°21'2 4.8
2018-Feb-15 16:00N 37°50' W 122°23'3 5.6
2018-Feb-15 15:30N 37°53' W 122°24'2 3.5
2018-Feb-15 15:00N 37°54' W 122°23'1 1.1
2018-Feb-15 14:30N 37°54' W 122°22'  

Dump ship's entire track history